sensor_id;sensor_type;location;lat;lon;timestamp;P1;durP1;ratioP1;P2;durP2;ratioP2
66272;SDS011;58450;52.150;4.466;2022-07-23T00:01:48;1.92;;;1.20;;
66272;SDS011;58450;52.150;4.466;2022-07-23T00:04:17;1.73;;;0.90;;
66272;SDS011;58450;52.150;4.466;2022-07-23T00:06:45;2.72;;;1.20;;
66272;SDS011;58450;52.150;4.466;2022-07-23T00:09:12;2.67;;;1.10;;
66272;SDS011;58450;52.150;4.466;2022-07-23T00:11:40;1.75;;;1.10;;
66272;SDS011;58450;52.150;4.466;2022-07-23T00:14:07;1.98;;;1.15;;
66272;SDS011;58450;52.150;4.466;2022-07-23T00:16:35;2.08;;;1.20;;
66272;SDS011;58450;52.150;4.466;2022-07-23T00:19:02;2.28;;;1.10;;
66272;SDS011;58450;52.150;4.466;2022-07-23T00:21:31;1.83;;;1.20;;
66272;SDS011;58450;52.150;4.466;2022-07-23T00:23:59;1.88;;;1.15;;
66272;SDS011;58450;52.150;4.466;2022-07-23T00:26:26;2.10;;;1.10;;
66272;SDS011;58450;52.150;4.466;2022-07-23T00:28:53;2.22;;;1.35;;
66272;SDS011;58450;52.150;4.466;2022-07-23T00:31:21;1.60;;;1.10;;
66272;SDS011;58450;52.150;4.466;2022-07-23T00:33:48;1.52;;;0.98;;
66272;SDS011;58450;52.150;4.466;2022-07-23T00:36:16;1.35;;;1.25;;
66272;SDS011;58450;52.150;4.466;2022-07-23T00:38:45;3.13;;;1.10;;
66272;SDS011;58450;52.150;4.466;2022-07-23T00:41:12;2.35;;;1.20;;
66272;SDS011;58450;52.150;4.466;2022-07-23T00:43:40;1.40;;;1.10;;
66272;SDS011;58450;52.150;4.466;2022-07-23T00:46:07;2.15;;;1.27;;
66272;SDS011;58450;52.150;4.466;2022-07-23T00:48:35;2.47;;;1.20;;
66272;SDS011;58450;52.150;4.466;2022-07-23T00:51:03;2.28;;;1.42;;
66272;SDS011;58450;52.150;4.466;2022-07-23T00:53:30;3.05;;;1.30;;
66272;SDS011;58450;52.150;4.466;2022-07-23T00:55:59;2.25;;;1.30;;
66272;SDS011;58450;52.150;4.466;2022-07-23T00:58:27;1.60;;;1.20;;
66272;SDS011;58450;52.150;4.466;2022-07-23T01:00:55;1.55;;;1.20;;
66272;SDS011;58450;52.150;4.466;2022-07-23T01:03:22;3.15;;;1.33;;
66272;SDS011;58450;52.150;4.466;2022-07-23T01:05:49;3.13;;;1.70;;
66272;SDS011;58450;52.150;4.466;2022-07-23T01:08:17;2.17;;;1.30;;
66272;SDS011;58450;52.150;4.466;2022-07-23T01:10:45;2.42;;;1.50;;
66272;SDS011;58450;52.150;4.466;2022-07-23T01:13:17;3.53;;;1.35;;
66272;SDS011;58450;52.150;4.466;2022-07-23T01:15:45;3.20;;;1.30;;
66272;SDS011;58450;52.150;4.466;2022-07-23T01:18:13;2.63;;;1.52;;
66272;SDS011;58450;52.150;4.466;2022-07-23T01:20:41;2.67;;;1.42;;
66272;SDS011;58450;52.150;4.466;2022-07-23T01:23:10;1.67;;;1.20;;
66272;SDS011;58450;52.150;4.466;2022-07-23T01:25:37;4.05;;;1.40;;
66272;SDS011;58450;52.150;4.466;2022-07-23T01:28:14;3.42;;;1.60;;
66272;SDS011;58450;52.150;4.466;2022-07-23T01:30:42;3.15;;;1.40;;
66272;SDS011;58450;52.150;4.466;2022-07-23T01:33:09;2.53;;;1.50;;
66272;SDS011;58450;52.150;4.466;2022-07-23T01:35:37;1.45;;;1.17;;
66272;SDS011;58450;52.150;4.466;2022-07-23T01:38:04;2.38;;;1.20;;
66272;SDS011;58450;52.150;4.466;2022-07-23T01:40:33;2.88;;;1.45;;
66272;SDS011;58450;52.150;4.466;2022-07-23T01:43:00;1.38;;;1.27;;
66272;SDS011;58450;52.150;4.466;2022-07-23T01:45:28;2.03;;;1.50;;
66272;SDS011;58450;52.150;4.466;2022-07-23T01:47:55;3.08;;;1.40;;
66272;SDS011;58450;52.150;4.466;2022-07-23T01:50:23;1.58;;;1.27;;
66272;SDS011;58450;52.150;4.466;2022-07-23T01:52:50;2.63;;;1.40;;
66272;SDS011;58450;52.150;4.466;2022-07-23T01:55:18;1.65;;;1.25;;
66272;SDS011;58450;52.150;4.466;2022-07-23T01:57:47;1.50;;;1.10;;
66272;SDS011;58450;52.150;4.466;2022-07-23T02:00:14;2.72;;;1.30;;
66272;SDS011;58450;52.150;4.466;2022-07-23T02:02:42;4.18;;;1.20;;
66272;SDS011;58450;52.150;4.466;2022-07-23T02:05:10;1.80;;;1.30;;
66272;SDS011;58450;52.150;4.466;2022-07-23T02:07:37;1.77;;;1.23;;
66272;SDS011;58450;52.150;4.466;2022-07-23T02:10:05;1.70;;;1.17;;
66272;SDS011;58450;52.150;4.466;2022-07-23T02:12:34;2.33;;;1.27;;
66272;SDS011;58450;52.150;4.466;2022-07-23T02:15:03;2.63;;;1.40;;
66272;SDS011;58450;52.150;4.466;2022-07-23T02:17:32;2.28;;;1.20;;
66272;SDS011;58450;52.150;4.466;2022-07-23T02:19:59;1.98;;;1.08;;
66272;SDS011;58450;52.150;4.466;2022-07-23T02:22:27;2.40;;;1.40;;
66272;SDS011;58450;52.150;4.466;2022-07-23T02:24:54;1.98;;;1.30;;
66272;SDS011;58450;52.150;4.466;2022-07-23T02:27:22;3.53;;;1.50;;
66272;SDS011;58450;52.150;4.466;2022-07-23T02:29:49;1.23;;;1.13;;
66272;SDS011;58450;52.150;4.466;2022-07-23T02:32:18;5.80;;;1.38;;
66272;SDS011;58450;52.150;4.466;2022-07-23T02:34:46;1.63;;;1.20;;
66272;SDS011;58450;52.150;4.466;2022-07-23T02:37:14;1.92;;;1.40;;
66272;SDS011;58450;52.150;4.466;2022-07-23T02:39:42;2.42;;;1.40;;
66272;SDS011;58450;52.150;4.466;2022-07-23T02:42:09;2.13;;;1.40;;
66272;SDS011;58450;52.150;4.466;2022-07-23T02:44:37;3.10;;;1.50;;
66272;SDS011;58450;52.150;4.466;2022-07-23T02:47:04;1.90;;;1.17;;
66272;SDS011;58450;52.150;4.466;2022-07-23T02:49:33;2.80;;;1.38;;
66272;SDS011;58450;52.150;4.466;2022-07-23T02:52:01;1.50;;;1.30;;
66272;SDS011;58450;52.150;4.466;2022-07-23T02:54:29;2.38;;;1.30;;
66272;SDS011;58450;52.150;4.466;2022-07-23T02:56:57;2.40;;;1.40;;
66272;SDS011;58450;52.150;4.466;2022-07-23T02:59:24;2.38;;;1.30;;
66272;SDS011;58450;52.150;4.466;2022-07-23T03:01:51;2.55;;;1.30;;
66272;SDS011;58450;52.150;4.466;2022-07-23T03:04:19;1.73;;;1.30;;
66272;SDS011;58450;52.150;4.466;2022-07-23T03:06:48;3.25;;;1.70;;
66272;SDS011;58450;52.150;4.466;2022-07-23T03:09:15;2.08;;;1.40;;
66272;SDS011;58450;52.150;4.466;2022-07-23T03:11:43;2.15;;;1.40;;
66272;SDS011;58450;52.150;4.466;2022-07-23T03:14:10;1.83;;;1.48;;
66272;SDS011;58450;52.150;4.466;2022-07-23T03:16:39;2.22;;;1.40;;
66272;SDS011;58450;52.150;4.466;2022-07-23T03:19:06;2.47;;;1.58;;
66272;SDS011;58450;52.150;4.466;2022-07-23T03:21:34;2.85;;;1.27;;
66272;SDS011;58450;52.150;4.466;2022-07-23T03:24:08;1.50;;;1.25;;
66272;SDS011;58450;52.150;4.466;2022-07-23T03:26:36;2.20;;;1.42;;
66272;SDS011;58450;52.150;4.466;2022-07-23T03:29:04;3.20;;;1.33;;
66272;SDS011;58450;52.150;4.466;2022-07-23T03:31:31;2.53;;;1.25;;
66272;SDS011;58450;52.150;4.466;2022-07-23T03:33:59;2.85;;;1.55;;
66272;SDS011;58450;52.150;4.466;2022-07-23T03:36:26;2.22;;;1.30;;
66272;SDS011;58450;52.150;4.466;2022-07-23T03:38:54;1.42;;;1.10;;
66272;SDS011;58450;52.150;4.466;2022-07-23T03:41:23;3.22;;;1.30;;
66272;SDS011;58450;52.150;4.466;2022-07-23T03:43:50;2.80;;;1.50;;
66272;SDS011;58450;52.150;4.466;2022-07-23T03:46:18;1.83;;;1.23;;
66272;SDS011;58450;52.150;4.466;2022-07-23T03:48:45;1.63;;;1.27;;
66272;SDS011;58450;52.150;4.466;2022-07-23T03:51:13;3.35;;;1.45;;
66272;SDS011;58450;52.150;4.466;2022-07-23T03:53:40;2.38;;;1.20;;
66272;SDS011;58450;52.150;4.466;2022-07-23T03:56:07;2.92;;;1.50;;
66272;SDS011;58450;52.150;4.466;2022-07-23T03:58:36;2.88;;;1.30;;
66272;SDS011;58450;52.150;4.466;2022-07-23T04:01:04;1.55;;;1.33;;
66272;SDS011;58450;52.150;4.466;2022-07-23T04:03:31;2.83;;;1.38;;
66272;SDS011;58450;52.150;4.466;2022-07-23T04:05:59;1.98;;;1.33;;
66272;SDS011;58450;52.150;4.466;2022-07-23T04:08:26;2.20;;;1.20;;
66272;SDS011;58450;52.150;4.466;2022-07-23T04:10:54;1.70;;;1.30;;
66272;SDS011;58450;52.150;4.466;2022-07-23T04:13:22;2.72;;;1.35;;
66272;SDS011;58450;52.150;4.466;2022-07-23T04:15:51;2.55;;;1.30;;
66272;SDS011;58450;52.150;4.466;2022-07-23T04:18:18;2.03;;;1.45;;
66272;SDS011;58450;52.150;4.466;2022-07-23T04:20:47;2.50;;;1.40;;
66272;SDS011;58450;52.150;4.466;2022-07-23T04:23:15;2.20;;;1.20;;
66272;SDS011;58450;52.150;4.466;2022-07-23T04:25:42;2.65;;;1.27;;
66272;SDS011;58450;52.150;4.466;2022-07-23T04:28:10;2.13;;;1.30;;
66272;SDS011;58450;52.150;4.466;2022-07-23T04:30:38;1.77;;;1.42;;
66272;SDS011;58450;52.150;4.466;2022-07-23T04:33:06;1.67;;;1.25;;
66272;SDS011;58450;52.150;4.466;2022-07-23T04:35:34;1.98;;;1.20;;
66272;SDS011;58450;52.150;4.466;2022-07-23T04:38:02;1.33;;;1.17;;
66272;SDS011;58450;52.150;4.466;2022-07-23T04:40:30;1.67;;;1.40;;
66272;SDS011;58450;52.150;4.466;2022-07-23T04:42:58;2.08;;;1.42;;
66272;SDS011;58450;52.150;4.466;2022-07-23T04:45:25;1.30;;;1.20;;
66272;SDS011;58450;52.150;4.466;2022-07-23T04:47:53;2.05;;;1.45;;
66272;SDS011;58450;52.150;4.466;2022-07-23T04:50:22;2.20;;;1.35;;
66272;SDS011;58450;52.150;4.466;2022-07-23T04:52:50;1.80;;;1.33;;
66272;SDS011;58450;52.150;4.466;2022-07-23T04:55:18;3.33;;;1.65;;
66272;SDS011;58450;52.150;4.466;2022-07-23T04:57:45;3.05;;;1.50;;
66272;SDS011;58450;52.150;4.466;2022-07-23T05:00:13;3.22;;;1.40;;
66272;SDS011;58450;52.150;4.466;2022-07-23T05:02:41;3.17;;;1.60;;
66272;SDS011;58450;52.150;4.466;2022-07-23T05:05:08;3.20;;;1.70;;
66272;SDS011;58450;52.150;4.466;2022-07-23T05:07:37;2.25;;;1.50;;
66272;SDS011;58450;52.150;4.466;2022-07-23T05:10:05;2.30;;;1.30;;
66272;SDS011;58450;52.150;4.466;2022-07-23T05:12:33;1.40;;;1.30;;
66272;SDS011;58450;52.150;4.466;2022-07-23T05:15:00;1.85;;;1.40;;
66272;SDS011;58450;52.150;4.466;2022-07-23T05:17:28;1.67;;;1.30;;
66272;SDS011;58450;52.150;4.466;2022-07-23T05:19:55;2.08;;;1.40;;
66272;SDS011;58450;52.150;4.466;2022-07-23T05:22:23;2.42;;;1.52;;
66272;SDS011;58450;52.150;4.466;2022-07-23T05:24:51;2.75;;;1.50;;
66272;SDS011;58450;52.150;4.466;2022-07-23T05:27:19;1.67;;;1.42;;
66272;SDS011;58450;52.150;4.466;2022-07-23T05:29:46;2.67;;;1.67;;
66272;SDS011;58450;52.150;4.466;2022-07-23T05:32:14;2.17;;;1.50;;
66272;SDS011;58450;52.150;4.466;2022-07-23T05:34:41;3.08;;;1.63;;
66272;SDS011;58450;52.150;4.466;2022-07-23T05:37:09;2.70;;;1.48;;
66272;SDS011;58450;52.150;4.466;2022-07-23T05:39:36;2.78;;;1.25;;
66272;SDS011;58450;52.150;4.466;2022-07-23T05:42:05;3.35;;;1.40;;
66272;SDS011;58450;52.150;4.466;2022-07-23T05:44:33;1.88;;;1.35;;
66272;SDS011;58450;52.150;4.466;2022-07-23T05:47:01;2.33;;;1.55;;
66272;SDS011;58450;52.150;4.466;2022-07-23T05:49:29;1.90;;;1.50;;
66272;SDS011;58450;52.150;4.466;2022-07-23T05:51:56;7.38;;;2.22;;
66272;SDS011;58450;52.150;4.466;2022-07-23T05:54:24;4.13;;;1.63;;
66272;SDS011;58450;52.150;4.466;2022-07-23T05:56:52;3.00;;;1.48;;
66272;SDS011;58450;52.150;4.466;2022-07-23T05:59:20;2.33;;;1.30;;
66272;SDS011;58450;52.150;4.466;2022-07-23T06:01:48;3.08;;;1.60;;
66272;SDS011;58450;52.150;4.466;2022-07-23T06:04:15;2.95;;;1.25;;
66272;SDS011;58450;52.150;4.466;2022-07-23T06:06:43;2.83;;;1.40;;
66272;SDS011;58450;52.150;4.466;2022-07-23T06:09:10;2.30;;;1.13;;
66272;SDS011;58450;52.150;4.466;2022-07-23T06:11:39;2.13;;;1.30;;
66272;SDS011;58450;52.150;4.466;2022-07-23T06:14:07;1.92;;;1.02;;
66272;SDS011;58450;52.150;4.466;2022-07-23T06:16:36;3.08;;;1.25;;
66272;SDS011;58450;52.150;4.466;2022-07-23T06:19:03;3.08;;;1.42;;
66272;SDS011;58450;52.150;4.466;2022-07-23T06:21:31;3.45;;;1.30;;
66272;SDS011;58450;52.150;4.466;2022-07-23T06:23:58;2.47;;;1.02;;
66272;SDS011;58450;52.150;4.466;2022-07-23T06:26:26;2.28;;;1.10;;
66272;SDS011;58450;52.150;4.466;2022-07-23T06:28:53;2.63;;;1.20;;
66272;SDS011;58450;52.150;4.466;2022-07-23T06:31:21;2.58;;;1.00;;
66272;SDS011;58450;52.150;4.466;2022-07-23T06:33:49;2.25;;;0.98;;
66272;SDS011;58450;52.150;4.466;2022-07-23T06:36:17;1.42;;;0.80;;
66272;SDS011;58450;52.150;4.466;2022-07-23T06:38:44;1.70;;;1.00;;
66272;SDS011;58450;52.150;4.466;2022-07-23T06:41:12;2.30;;;1.00;;
66272;SDS011;58450;52.150;4.466;2022-07-23T06:43:39;1.70;;;0.90;;
66272;SDS011;58450;52.150;4.466;2022-07-23T06:46:07;1.10;;;0.93;;
66272;SDS011;58450;52.150;4.466;2022-07-23T06:48:34;3.13;;;0.95;;
66272;SDS011;58450;52.150;4.466;2022-07-23T06:51:04;2.28;;;1.00;;
66272;SDS011;58450;52.150;4.466;2022-07-23T06:53:31;1.77;;;0.75;;
66272;SDS011;58450;52.150;4.466;2022-07-23T06:55:59;2.53;;;0.77;;
66272;SDS011;58450;52.150;4.466;2022-07-23T06:58:26;1.40;;;0.80;;
66272;SDS011;58450;52.150;4.466;2022-07-23T07:00:54;2.47;;;0.95;;
66272;SDS011;58450;52.150;4.466;2022-07-23T07:03:22;0.80;;;0.70;;
66272;SDS011;58450;52.150;4.466;2022-07-23T07:05:50;1.58;;;0.70;;
66272;SDS011;58450;52.150;4.466;2022-07-23T07:08:20;2.38;;;0.77;;
66272;SDS011;58450;52.150;4.466;2022-07-23T07:10:47;2.53;;;0.95;;
66272;SDS011;58450;52.150;4.466;2022-07-23T07:13:15;1.73;;;0.80;;
66272;SDS011;58450;52.150;4.466;2022-07-23T07:15:42;0.73;;;0.68;;
66272;SDS011;58450;52.150;4.466;2022-07-23T07:18:10;2.08;;;0.70;;
66272;SDS011;58450;52.150;4.466;2022-07-23T07:20:37;1.67;;;0.80;;
66272;SDS011;58450;52.150;4.466;2022-07-23T07:23:05;1.77;;;0.80;;
66272;SDS011;58450;52.150;4.466;2022-07-23T07:25:33;2.22;;;0.80;;
66272;SDS011;58450;52.150;4.466;2022-07-23T07:28:01;1.27;;;0.73;;
66272;SDS011;58450;52.150;4.466;2022-07-23T07:30:29;2.25;;;0.95;;
66272;SDS011;58450;52.150;4.466;2022-07-23T07:32:56;1.90;;;0.82;;
66272;SDS011;58450;52.150;4.466;2022-07-23T07:35:24;1.45;;;0.70;;
66272;SDS011;58450;52.150;4.466;2022-07-23T07:37:52;2.83;;;0.88;;
66272;SDS011;58450;52.150;4.466;2022-07-23T07:40:19;1.58;;;1.05;;
66272;SDS011;58450;52.150;4.466;2022-07-23T07:42:49;1.60;;;0.80;;
66272;SDS011;58450;52.150;4.466;2022-07-23T07:45:19;2.30;;;0.75;;
66272;SDS011;58450;52.150;4.466;2022-07-23T07:47:48;0.90;;;0.60;;
66272;SDS011;58450;52.150;4.466;2022-07-23T07:50:16;1.05;;;0.60;;
66272;SDS011;58450;52.150;4.466;2022-07-23T07:52:43;0.60;;;0.57;;
66272;SDS011;58450;52.150;4.466;2022-07-23T07:55:11;1.67;;;0.77;;
66272;SDS011;58450;52.150;4.466;2022-07-23T07:57:39;1.27;;;0.45;;
66272;SDS011;58450;52.150;4.466;2022-07-23T08:00:09;2.35;;;0.80;;
66272;SDS011;58450;52.150;4.466;2022-07-23T08:02:42;2.13;;;0.68;;
66272;SDS011;58450;52.150;4.466;2022-07-23T08:05:11;1.58;;;0.70;;
66272;SDS011;58450;52.150;4.466;2022-07-23T08:07:38;1.40;;;0.60;;
66272;SDS011;58450;52.150;4.466;2022-07-23T08:10:07;2.17;;;0.50;;
66272;SDS011;58450;52.150;4.466;2022-07-23T08:12:43;1.05;;;0.60;;
66272;SDS011;58450;52.150;4.466;2022-07-23T08:15:13;1.42;;;0.70;;
66272;SDS011;58450;52.150;4.466;2022-07-23T08:17:44;1.25;;;0.68;;
66272;SDS011;58450;52.150;4.466;2022-07-23T08:20:15;1.02;;;0.60;;
66272;SDS011;58450;52.150;4.466;2022-07-23T08:22:45;2.10;;;0.77;;
66272;SDS011;58450;52.150;4.466;2022-07-23T08:25:15;1.35;;;0.60;;
66272;SDS011;58450;52.150;4.466;2022-07-23T08:27:47;1.67;;;0.70;;
66272;SDS011;58450;52.150;4.466;2022-07-23T08:30:17;1.30;;;0.60;;
66272;SDS011;58450;52.150;4.466;2022-07-23T08:32:49;1.00;;;0.60;;
66272;SDS011;58450;52.150;4.466;2022-07-23T08:35:26;0.65;;;0.50;;
66272;SDS011;58450;52.150;4.466;2022-07-23T08:37:56;1.77;;;0.70;;
66272;SDS011;58450;52.150;4.466;2022-07-23T08:40:25;2.65;;;0.60;;
66272;SDS011;58450;52.150;4.466;2022-07-23T08:42:55;1.50;;;0.60;;
66272;SDS011;58450;52.150;4.466;2022-07-23T08:45:25;1.75;;;0.50;;
66272;SDS011;58450;52.150;4.466;2022-07-23T08:47:54;1.27;;;0.70;;
66272;SDS011;58450;52.150;4.466;2022-07-23T08:50:25;1.52;;;0.70;;
66272;SDS011;58450;52.150;4.466;2022-07-23T08:52:53;1.48;;;0.60;;
66272;SDS011;58450;52.150;4.466;2022-07-23T08:55:22;1.88;;;0.63;;
66272;SDS011;58450;52.150;4.466;2022-07-23T08:57:51;1.63;;;0.70;;
66272;SDS011;58450;52.150;4.466;2022-07-23T09:00:20;0.80;;;0.60;;
66272;SDS011;58450;52.150;4.466;2022-07-23T09:02:50;1.20;;;0.60;;
66272;SDS011;58450;52.150;4.466;2022-07-23T09:05:18;1.42;;;0.60;;
66272;SDS011;58450;52.150;4.466;2022-07-23T09:10:48;1.88;;;0.50;;
66272;SDS011;58450;52.150;4.466;2022-07-23T09:13:23;0.73;;;0.50;;
66272;SDS011;58450;52.150;4.466;2022-07-23T09:16:05;2.40;;;0.68;;
66272;SDS011;58450;52.150;4.466;2022-07-23T09:18:41;1.40;;;0.70;;
66272;SDS011;58450;52.150;4.466;2022-07-23T09:21:14;1.02;;;0.55;;
66272;SDS011;58450;52.150;4.466;2022-07-23T09:23:45;1.55;;;0.70;;
66272;SDS011;58450;52.150;4.466;2022-07-23T09:26:17;1.42;;;0.70;;
66272;SDS011;58450;52.150;4.466;2022-07-23T09:29:02;1.33;;;0.70;;
66272;SDS011;58450;52.150;4.466;2022-07-23T09:31:35;1.70;;;0.70;;
66272;SDS011;58450;52.150;4.466;2022-07-23T09:34:17;1.45;;;0.60;;
66272;SDS011;58450;52.150;4.466;2022-07-23T09:36:47;2.03;;;1.00;;
66272;SDS011;58450;52.150;4.466;2022-07-23T09:39:21;1.38;;;0.70;;
66272;SDS011;58450;52.150;4.466;2022-07-23T09:41:53;1.40;;;0.70;;
66272;SDS011;58450;52.150;4.466;2022-07-23T09:44:21;1.50;;;0.70;;
66272;SDS011;58450;52.150;4.466;2022-07-23T09:46:50;1.33;;;0.60;;
66272;SDS011;58450;52.150;4.466;2022-07-23T09:49:25;1.70;;;0.90;;
66272;SDS011;58450;52.150;4.466;2022-07-23T09:51:55;1.33;;;0.55;;
66272;SDS011;58450;52.150;4.466;2022-07-23T09:54:27;0.85;;;0.70;;
66272;SDS011;58450;52.150;4.466;2022-07-23T09:56:59;1.13;;;0.63;;
66272;SDS011;58450;52.150;4.466;2022-07-23T09:59:32;1.05;;;0.60;;
66272;SDS011;58450;52.150;4.466;2022-07-23T10:02:01;1.55;;;0.60;;
66272;SDS011;58450;52.150;4.466;2022-07-23T10:04:33;1.90;;;0.73;;
66272;SDS011;58450;52.150;4.466;2022-07-23T10:07:01;1.17;;;0.70;;
66272;SDS011;58450;52.150;4.466;2022-07-23T10:09:34;1.42;;;0.80;;
66272;SDS011;58450;52.150;4.466;2022-07-23T10:12:09;1.77;;;0.90;;
66272;SDS011;58450;52.150;4.466;2022-07-23T10:14:56;1.58;;;0.80;;
66272;SDS011;58450;52.150;4.466;2022-07-23T10:17:25;1.73;;;0.70;;
66272;SDS011;58450;52.150;4.466;2022-07-23T10:19:55;3.17;;;1.25;;
66272;SDS011;58450;52.150;4.466;2022-07-23T10:22:24;1.77;;;0.80;;
66272;SDS011;58450;52.150;4.466;2022-07-23T10:24:59;2.92;;;0.98;;
66272;SDS011;58450;52.150;4.466;2022-07-23T10:27:48;2.70;;;1.20;;
66272;SDS011;58450;52.150;4.466;2022-07-23T10:30:34;1.77;;;0.80;;
66272;SDS011;58450;52.150;4.466;2022-07-23T10:33:15;2.15;;;0.90;;
66272;SDS011;58450;52.150;4.466;2022-07-23T10:36:00;2.25;;;0.93;;
66272;SDS011;58450;52.150;4.466;2022-07-23T10:38:37;1.77;;;0.93;;
66272;SDS011;58450;52.150;4.466;2022-07-23T10:41:14;2.15;;;1.00;;
66272;SDS011;58450;52.150;4.466;2022-07-23T10:46:46;2.60;;;0.80;;
66272;SDS011;58450;52.150;4.466;2022-07-23T10:49:29;1.05;;;0.77;;
66272;SDS011;58450;52.150;4.466;2022-07-23T10:52:22;1.42;;;0.65;;
66272;SDS011;58450;52.150;4.466;2022-07-23T10:54:53;1.00;;;0.60;;
66272;SDS011;58450;52.150;4.466;2022-07-23T10:57:24;1.33;;;0.65;;
66272;SDS011;58450;52.150;4.466;2022-07-23T11:00:09;2.50;;;0.80;;
66272;SDS011;58450;52.150;4.466;2022-07-23T11:02:44;1.60;;;1.10;;
66272;SDS011;58450;52.150;4.466;2022-07-23T11:05:14;2.20;;;1.05;;
66272;SDS011;58450;52.150;4.466;2022-07-23T11:10:48;1.92;;;1.00;;
66272;SDS011;58450;52.150;4.466;2022-07-23T11:16:15;2.15;;;1.00;;
66272;SDS011;58450;52.150;4.466;2022-07-23T11:18:58;1.90;;;1.25;;
66272;SDS011;58450;52.150;4.466;2022-07-23T11:21:40;1.48;;;1.02;;
66272;SDS011;58450;52.150;4.466;2022-07-23T11:24:23;1.20;;;0.93;;
66272;SDS011;58450;52.150;4.466;2022-07-23T11:26:56;2.40;;;0.80;;
66272;SDS011;58450;52.150;4.466;2022-07-23T11:29:45;1.45;;;0.70;;
66272;SDS011;58450;52.150;4.466;2022-07-23T11:32:18;3.22;;;0.93;;
66272;SDS011;58450;52.150;4.466;2022-07-23T11:37:53;1.65;;;0.80;;
66272;SDS011;58450;52.150;4.466;2022-07-23T11:40:32;2.08;;;0.95;;
66272;SDS011;58450;52.150;4.466;2022-07-23T11:43:01;1.15;;;0.88;;
66272;SDS011;58450;52.150;4.466;2022-07-23T11:45:32;2.22;;;0.80;;
66272;SDS011;58450;52.150;4.466;2022-07-23T11:48:04;1.67;;;0.70;;
66272;SDS011;58450;52.150;4.466;2022-07-23T11:50:33;0.82;;;0.73;;
66272;SDS011;58450;52.150;4.466;2022-07-23T11:53:02;1.13;;;0.80;;
66272;SDS011;58450;52.150;4.466;2022-07-23T11:55:31;1.30;;;0.75;;
66272;SDS011;58450;52.150;4.466;2022-07-23T11:57:59;1.48;;;0.80;;
66272;SDS011;58450;52.150;4.466;2022-07-23T12:00:28;0.90;;;0.80;;
66272;SDS011;58450;52.150;4.466;2022-07-23T12:03:00;1.25;;;0.70;;
66272;SDS011;58450;52.150;4.466;2022-07-23T12:05:32;1.48;;;0.73;;
66272;SDS011;58450;52.150;4.466;2022-07-23T12:08:02;2.13;;;0.80;;
66272;SDS011;58450;52.150;4.466;2022-07-23T12:10:35;3.03;;;1.20;;
66272;SDS011;58450;52.150;4.466;2022-07-23T12:13:05;2.30;;;0.90;;
66272;SDS011;58450;52.150;4.466;2022-07-23T12:15:36;2.08;;;1.00;;
66272;SDS011;58450;52.150;4.466;2022-07-23T12:18:08;1.85;;;0.77;;
66272;SDS011;58450;52.150;4.466;2022-07-23T12:20:38;1.80;;;1.00;;
66272;SDS011;58450;52.150;4.466;2022-07-23T12:23:10;1.98;;;0.98;;
66272;SDS011;58450;52.150;4.466;2022-07-23T12:25:42;1.77;;;1.00;;
66272;SDS011;58450;52.150;4.466;2022-07-23T12:28:13;4.07;;;1.00;;
66272;SDS011;58450;52.150;4.466;2022-07-23T12:30:43;2.08;;;0.80;;
66272;SDS011;58450;52.150;4.466;2022-07-23T12:33:15;1.52;;;0.80;;
66272;SDS011;58450;52.150;4.466;2022-07-23T12:35:51;2.63;;;0.73;;
66272;SDS011;58450;52.150;4.466;2022-07-23T12:38:23;1.42;;;0.70;;
66272;SDS011;58450;52.150;4.466;2022-07-23T12:40:55;1.98;;;0.70;;
66272;SDS011;58450;52.150;4.466;2022-07-23T12:43:26;1.98;;;0.73;;
66272;SDS011;58450;52.150;4.466;2022-07-23T12:45:57;2.70;;;0.90;;
66272;SDS011;58450;52.150;4.466;2022-07-23T12:48:31;1.45;;;0.70;;
66272;SDS011;58450;52.150;4.466;2022-07-23T12:51:02;1.35;;;0.60;;
66272;SDS011;58450;52.150;4.466;2022-07-23T12:53:36;2.83;;;0.80;;
66272;SDS011;58450;52.150;4.466;2022-07-23T12:56:08;1.13;;;0.52;;
66272;SDS011;58450;52.150;4.466;2022-07-23T12:58:39;1.10;;;0.60;;
66272;SDS011;58450;52.150;4.466;2022-07-23T13:01:21;0.77;;;0.43;;
66272;SDS011;58450;52.150;4.466;2022-07-23T13:03:55;1.77;;;0.70;;
66272;SDS011;58450;52.150;4.466;2022-07-23T13:06:27;1.77;;;0.60;;
66272;SDS011;58450;52.150;4.466;2022-07-23T13:08:56;2.70;;;0.73;;
66272;SDS011;58450;52.150;4.466;2022-07-23T13:11:26;2.10;;;0.80;;
66272;SDS011;58450;52.150;4.466;2022-07-23T13:13:53;1.75;;;0.70;;
66272;SDS011;58450;52.150;4.466;2022-07-23T13:16:21;1.73;;;0.70;;
66272;SDS011;58450;52.150;4.466;2022-07-23T13:18:48;2.08;;;0.70;;
66272;SDS011;58450;52.150;4.466;2022-07-23T13:21:16;3.28;;;0.80;;
66272;SDS011;58450;52.150;4.466;2022-07-23T13:23:43;1.15;;;0.70;;
66272;SDS011;58450;52.150;4.466;2022-07-23T13:26:11;1.65;;;0.60;;
66272;SDS011;58450;52.150;4.466;2022-07-23T13:28:40;1.88;;;0.90;;
66272;SDS011;58450;52.150;4.466;2022-07-23T13:31:07;0.98;;;0.65;;
66272;SDS011;58450;52.150;4.466;2022-07-23T13:33:35;2.67;;;0.85;;
66272;SDS011;58450;52.150;4.466;2022-07-23T13:36:03;2.38;;;1.00;;
66272;SDS011;58450;52.150;4.466;2022-07-23T13:38:32;1.23;;;0.70;;
66272;SDS011;58450;52.150;4.466;2022-07-23T13:40:59;3.65;;;0.80;;
66272;SDS011;58450;52.150;4.466;2022-07-23T13:43:28;2.65;;;1.00;;
66272;SDS011;58450;52.150;4.466;2022-07-23T13:45:58;2.70;;;0.90;;
66272;SDS011;58450;52.150;4.466;2022-07-23T13:48:26;1.02;;;0.75;;
66272;SDS011;58450;52.150;4.466;2022-07-23T13:50:54;2.53;;;0.90;;
66272;SDS011;58450;52.150;4.466;2022-07-23T13:53:22;1.75;;;0.90;;
66272;SDS011;58450;52.150;4.466;2022-07-23T13:55:51;1.40;;;0.80;;
66272;SDS011;58450;52.150;4.466;2022-07-23T13:58:20;1.13;;;0.85;;
66272;SDS011;58450;52.150;4.466;2022-07-23T14:00:49;2.60;;;0.85;;
66272;SDS011;58450;52.150;4.466;2022-07-23T14:03:21;1.95;;;0.82;;
66272;SDS011;58450;52.150;4.466;2022-07-23T14:05:49;2.85;;;1.10;;
66272;SDS011;58450;52.150;4.466;2022-07-23T14:08:18;2.08;;;1.27;;
66272;SDS011;58450;52.150;4.466;2022-07-23T14:10:46;2.13;;;1.02;;
66272;SDS011;58450;52.150;4.466;2022-07-23T14:13:13;2.47;;;1.10;;
66272;SDS011;58450;52.150;4.466;2022-07-23T14:15:41;2.83;;;1.05;;
66272;SDS011;58450;52.150;4.466;2022-07-23T14:18:08;1.92;;;1.20;;
66272;SDS011;58450;52.150;4.466;2022-07-23T14:20:37;2.67;;;1.10;;
66272;SDS011;58450;52.150;4.466;2022-07-23T14:23:04;1.23;;;0.90;;
66272;SDS011;58450;52.150;4.466;2022-07-23T14:25:32;2.65;;;1.00;;
66272;SDS011;58450;52.150;4.466;2022-07-23T14:27:59;2.08;;;1.20;;
66272;SDS011;58450;52.150;4.466;2022-07-23T14:30:27;3.53;;;1.20;;
66272;SDS011;58450;52.150;4.466;2022-07-23T14:32:55;3.13;;;1.20;;
66272;SDS011;58450;52.150;4.466;2022-07-23T14:35:22;2.63;;;1.20;;
66272;SDS011;58450;52.150;4.466;2022-07-23T14:37:51;1.67;;;1.10;;
66272;SDS011;58450;52.150;4.466;2022-07-23T14:40:18;1.83;;;1.10;;
66272;SDS011;58450;52.150;4.466;2022-07-23T14:42:46;1.92;;;1.15;;
66272;SDS011;58450;52.150;4.466;2022-07-23T14:45:13;1.88;;;1.17;;
66272;SDS011;58450;52.150;4.466;2022-07-23T14:47:41;1.70;;;0.95;;
66272;SDS011;58450;52.150;4.466;2022-07-23T14:50:08;1.45;;;1.00;;
66272;SDS011;58450;52.150;4.466;2022-07-23T14:52:36;2.35;;;1.42;;
66272;SDS011;58450;52.150;4.466;2022-07-23T14:55:05;2.53;;;1.08;;
66272;SDS011;58450;52.150;4.466;2022-07-23T14:57:34;3.72;;;1.35;;
66272;SDS011;58450;52.150;4.466;2022-07-23T15:00:01;1.58;;;1.00;;
66272;SDS011;58450;52.150;4.466;2022-07-23T15:02:30;2.00;;;1.10;;
66272;SDS011;58450;52.150;4.466;2022-07-23T15:04:58;1.98;;;1.10;;
66272;SDS011;58450;52.150;4.466;2022-07-23T15:07:26;2.03;;;1.05;;
66272;SDS011;58450;52.150;4.466;2022-07-23T15:09:54;2.42;;;1.08;;
66272;SDS011;58450;52.150;4.466;2022-07-23T15:12:24;2.80;;;1.10;;
66272;SDS011;58450;52.150;4.466;2022-07-23T15:14:51;2.47;;;1.10;;
66272;SDS011;58450;52.150;4.466;2022-07-23T15:17:19;1.70;;;0.88;;